createdAt,value
2024-02-07T00:00:44.758Z,97474.89
2024-02-07T00:06:07.905Z,97467.50
2024-02-07T00:11:11.129Z,97463.32
2024-02-07T00:16:15.400Z,97454.57
2024-02-07T00:21:18.561Z,97448.17
2024-02-07T00:26:21.565Z,97443.13
2024-02-07T00:31:25.427Z,97436.00
2024-02-07T00:36:28.499Z,97426.36
2024-02-07T00:41:31.908Z,97428.85
2024-02-07T00:46:35.225Z,97425.42
2024-02-07T00:51:38.842Z,97423.92
2024-02-07T00:56:41.850Z,97421.73
2024-02-07T01:02:17.754Z,97436.89
2024-02-07T01:07:21.892Z,97536.08
2024-02-07T01:12:25.083Z,97551.61
2024-02-07T01:17:28.624Z,97549.23
2024-02-07T01:22:32.247Z,97565.69
2024-02-07T01:27:35.632Z,97580.31
2024-02-07T01:32:43.386Z,97589.55
2024-02-07T01:37:47.709Z,97591.73
2024-02-07T01:42:51.520Z,97595.61
2024-02-07T01:47:54.686Z,97593.63
2024-02-07T01:53:03.789Z,97597.06
2024-02-07T01:58:07.092Z,97599.48
2024-02-07T02:03:10.329Z,97607.56
2024-02-07T02:08:13.820Z,97607.84
2024-02-07T02:13:18.197Z,97605.49
2024-02-07T02:18:21.372Z,97615.10
2024-02-07T02:23:47.817Z,97614.83
2024-02-07T02:28:54.895Z,97607.98
2024-02-07T02:33:59.535Z,97607.11
2024-02-07T02:39:07.111Z,97612.84
2024-02-07T02:44:10.461Z,97615.99
2024-02-07T02:49:13.679Z,97604.61
2024-02-07T02:54:17.330Z,97602.79
2024-02-07T02:59:22.170Z,97597.15
2024-02-07T03:04:27.778Z,97590.96
2024-02-07T03:09:32.249Z,97596.87
2024-02-07T03:14:36.014Z,97594.11
2024-02-07T03:19:39.049Z,97607.02
2024-02-07T03:24:43.259Z,97618.88
2024-02-07T03:29:46.361Z,97619.83
2024-02-07T03:34:49.496Z,97602.13
2024-02-07T03:39:52.581Z,97591.70
2024-02-07T03:44:58.362Z,97590.92
2024-02-07T03:50:06.017Z,97592.25
2024-02-07T03:55:09.789Z,97601.18
2024-02-07T04:00:17.026Z,97591.76
2024-02-07T04:05:20.616Z,97583.17
2024-02-07T04:10:25.685Z,97586.98
2024-02-07T04:15:47.424Z,97590.93
2024-02-07T04:21:10.941Z,97600.71
2024-02-07T04:26:39.317Z,97601.23
2024-02-07T04:32:01.059Z,97591.71
2024-02-07T04:37:23.075Z,97594.17
2024-02-07T04:42:44.716Z,97618.38
2024-02-07T04:48:06.833Z,97611.02
2024-02-07T04:53:28.556Z,97607.91
2024-02-07T04:58:50.308Z,97608.17
2024-02-07T05:04:12.343Z,97610.81
2024-02-07T05:09:34.301Z,97617.61
2024-02-07T05:14:49.377Z,97612.02
2024-02-07T05:19:53.190Z,97615.20
2024-02-07T05:24:56.322Z,97626.58
2024-02-07T05:29:59.332Z,97628.79
2024-02-07T05:35:02.644Z,97638.80
2024-02-07T05:40:06.739Z,97638.32
2024-02-07T05:45:10.308Z,97640.92
2024-02-07T05:50:13.745Z,97642.48
2024-02-07T05:55:16.940Z,97643.83
2024-02-07T06:00:20.246Z,97642.21
2024-02-07T06:05:23.636Z,97635.90
2024-02-07T06:10:26.917Z,97640.61
2024-02-07T06:15:30.086Z,97646.50
2024-02-07T06:20:33.415Z,97636.88
2024-02-07T06:25:36.840Z,97630.54
2024-02-07T06:30:40.128Z,97632.20
2024-02-07T06:35:43.646Z,97635.55
2024-02-07T06:40:46.917Z,97628.03
2024-02-07T06:45:50.084Z,97633.30
2024-02-07T06:50:53.382Z,97638.85
2024-02-07T06:55:59.965Z,97633.70
2024-02-07T07:01:04.168Z,97629.83
2024-02-07T07:06:07.773Z,97629.08
2024-02-07T07:11:11.136Z,97643.36
2024-02-07T07:16:14.428Z,97650.54
2024-02-07T07:21:17.982Z,97650.77
2024-02-07T07:26:22.316Z,97645.39
2024-02-07T07:31:27.033Z,97646.61
2024-02-07T07:36:30.493Z,97658.52
2024-02-07T07:41:35.040Z,97656.09
2024-02-07T07:46:38.692Z,97657.40
2024-02-07T07:51:42.880Z,97658.70
2024-02-07T07:56:46.101Z,97663.60
2024-02-07T08:01:57.679Z,97658.86
2024-02-07T08:07:00.942Z,97666.64
2024-02-07T08:12:05.028Z,97671.63
2024-02-07T08:17:08.550Z,97675.70
2024-02-07T08:22:11.958Z,97689.84
2024-02-07T08:27:15.398Z,97688.01
2024-02-07T08:32:18.614Z,97700.73
2024-02-07T08:37:23.538Z,97706.95
2024-02-07T08:42:27.016Z,97713.47
2024-02-07T08:47:30.755Z,97703.83
2024-02-07T08:52:34.028Z,97706.77
2024-02-07T08:57:37.924Z,97706.77
2024-02-07T09:02:41.090Z,97711.45
2024-02-07T09:07:44.454Z,97709.71
2024-02-07T09:12:47.902Z,97707.79
2024-02-07T09:17:51.336Z,97716.50
2024-02-07T09:22:54.585Z,97717.68
2024-02-07T09:27:59.050Z,97719.83
2024-02-07T09:33:02.489Z,97728.88
2024-02-07T09:38:05.898Z,97746.33
2024-02-07T09:43:10.633Z,97750.38
2024-02-07T09:48:23.041Z,97764.66
2024-02-07T09:53:28.085Z,97769.72
2024-02-07T09:58:32.256Z,97767.81
2024-02-07T10:03:38.753Z,97766.84
2024-02-07T10:08:48.361Z,97766.44
2024-02-07T10:13:51.630Z,97767.36
2024-02-07T10:18:55.327Z,97766.52
2024-02-07T10:23:58.440Z,97772.11
2024-02-07T10:29:03.397Z,97766.77
2024-02-07T10:34:19.738Z,97761.84
2024-02-07T10:39:23.031Z,97762.52
2024-02-07T10:44:26.338Z,97767.20
2024-02-07T10:49:30.205Z,97770.17
2024-02-07T10:54:33.487Z,97775.43
2024-02-07T10:59:40.415Z,97817.84
2024-02-07T11:04:46.863Z,97847.59
2024-02-07T11:09:50.396Z,97852.68
2024-02-07T11:14:55.741Z,97856.29
2024-02-07T11:19:59.211Z,97854.02
2024-02-07T11:25:03.980Z,97863.27
2024-02-07T11:30:11.928Z,97858.88
2024-02-07T11:35:15.781Z,97856.60
2024-02-07T11:40:20.795Z,97865.77
2024-02-07T11:45:24.126Z,97869.91
2024-02-07T11:50:27.342Z,97872.23
2024-02-07T11:55:41.636Z,97868.85
2024-02-07T12:00:46.422Z,97869.63
2024-02-07T12:05:50.433Z,97870.48
2024-02-07T12:10:53.700Z,97879.22
2024-02-07T12:16:01.148Z,97880.95
2024-02-07T12:21:06.120Z,97886.89
2024-02-07T12:26:09.663Z,97889.34
2024-02-07T12:31:13.001Z,97891.75
2024-02-07T12:36:17.337Z,97897.81
2024-02-07T12:41:20.999Z,97905.67
2024-02-07T12:46:24.811Z,97910.77
2024-02-07T12:51:28.610Z,97909.13
2024-02-07T12:56:31.930Z,97918.52
2024-02-07T13:01:35.432Z,97927.31
2024-02-07T13:06:42.245Z,97927.30
2024-02-07T13:11:45.558Z,97933.89
2024-02-07T13:16:52.647Z,97931.87
2024-02-07T13:21:56.389Z,97929.58
2024-02-07T13:27:02.903Z,97934.46
2024-02-07T13:32:11.760Z,97938.10
2024-02-07T13:37:15.723Z,97946.41
2024-02-07T13:42:21.902Z,97949.87
2024-02-07T13:47:25.622Z,97950.33
2024-02-07T13:52:29.140Z,97956.33
2024-02-07T13:57:32.879Z,97979.86
2024-02-07T14:02:36.210Z,97996.63
2024-02-07T14:07:39.549Z,98005.60
2024-02-07T14:12:42.934Z,98018.68
2024-02-07T14:17:46.385Z,98043.55
2024-02-07T14:22:49.904Z,98055.85
2024-02-07T14:27:53.200Z,98067.14
2024-02-07T14:32:56.489Z,98074.42
2024-02-07T14:38:00.083Z,98079.10
2024-02-07T14:43:03.538Z,98083.27
2024-02-07T14:48:07.521Z,98091.30
2024-02-07T14:53:10.933Z,98097.71
2024-02-07T14:58:14.391Z,98105.30
2024-02-07T15:03:17.735Z,98108.23
2024-02-07T15:08:21.222Z,98112.41
2024-02-07T15:13:24.732Z,98114.52
2024-02-07T15:18:28.215Z,98115.25
2024-02-07T15:23:31.615Z,98124.77
2024-02-07T15:28:35.184Z,98136.16
2024-02-07T15:33:42.155Z,98146.54
2024-02-07T15:38:47.992Z,98149.65
2024-02-07T15:43:51.930Z,98149.67
2024-02-07T15:49:02.595Z,98152.23
2024-02-07T15:54:12.775Z,98150.58
2024-02-07T15:59:17.513Z,98150.32
2024-02-07T16:04:21.180Z,98168.27
2024-02-07T16:09:25.585Z,98183.20
2024-02-07T16:14:29.912Z,98197.29
2024-02-07T16:19:33.591Z,98204.14
2024-02-07T16:24:37.472Z,98216.10
2024-02-07T16:29:40.891Z,98228.23
2024-02-07T16:34:45.564Z,98243.98
2024-02-07T16:39:50.427Z,98252.56
2024-02-07T16:44:53.789Z,98255.67
2024-02-07T16:49:57.223Z,98263.82
2024-02-07T16:55:00.967Z,98274.75
2024-02-07T17:00:05.222Z,98282.46
2024-02-07T17:05:11.657Z,98287.06
2024-02-07T17:10:17.651Z,98292.63
2024-02-07T17:15:20.843Z,98297.98
2024-02-07T17:20:24.562Z,98303.45
2024-02-07T17:25:27.998Z,98307.86
2024-02-07T17:30:36.735Z,98311.75
2024-02-07T17:35:41.162Z,98313.91
2024-02-07T17:40:46.203Z,98325.38
2024-02-07T17:45:49.428Z,98330.99
2024-02-07T17:50:52.672Z,98340.25
2024-02-07T17:55:56.077Z,98351.05
2024-02-07T18:00:59.524Z,98361.52
2024-02-07T18:06:02.995Z,98364.40
2024-02-07T18:11:06.692Z,98364.23
2024-02-07T18:16:10.064Z,98364.75
2024-02-07T18:21:13.356Z,98361.48
2024-02-07T18:26:16.777Z,98365.60
2024-02-07T18:31:20.119Z,98372.34
2024-02-07T18:36:23.498Z,98379.92
2024-02-07T18:41:27.607Z,98385.77
2024-02-07T18:46:30.974Z,98399.70
2024-02-07T18:51:35.054Z,98411.41
2024-02-07T18:56:38.378Z,98415.38
2024-02-07T19:01:42.506Z,98411.94
2024-02-07T19:06:46.178Z,98412.83
2024-02-07T19:11:53.745Z,98421.94
2024-02-07T19:16:57.678Z,98423.17
2024-02-07T19:22:01.200Z,98427.17
2024-02-07T19:27:05.023Z,98432.35
2024-02-07T19:32:12.374Z,98439.25
2024-02-07T19:37:15.996Z,98444.59
2024-02-07T19:42:19.364Z,98446.16
2024-02-07T19:47:22.587Z,98445.32
2024-02-07T19:52:25.906Z,98447.73
2024-02-07T19:57:29.192Z,98447.23
2024-02-07T20:02:32.738Z,98446.06
2024-02-07T20:07:36.304Z,98453.50
2024-02-07T20:12:39.760Z,98459.40
2024-02-07T20:17:46.066Z,98463.23
2024-02-07T20:22:49.533Z,98482.69
2024-02-07T20:27:53.174Z,98488.58
2024-02-07T20:32:56.843Z,98490.50
2024-02-07T20:38:00.689Z,98489.51
2024-02-07T20:43:05.309Z,98486.09
2024-02-07T20:48:09.251Z,98498.63
2024-02-07T20:53:14.427Z,98506.33
2024-02-07T20:58:17.678Z,98515.06
2024-02-07T21:03:20.969Z,98516.92
2024-02-07T21:08:24.522Z,98518.64
2024-02-07T21:13:28.720Z,98522.73
2024-02-07T21:18:32.028Z,98524.29
2024-02-07T21:23:35.381Z,98528.26
2024-02-07T21:28:41.827Z,98537.90
2024-02-07T21:33:47.357Z,98542.39
2024-02-07T21:38:50.544Z,98541.04
2024-02-07T21:43:53.794Z,98548.75
2024-02-07T21:48:57.249Z,98553.91
2024-02-07T21:54:00.605Z,98562.67
2024-02-07T21:59:03.972Z,98564.55
2024-02-07T22:04:07.338Z,98565.06
2024-02-07T22:09:10.541Z,98570.20
2024-02-07T22:14:13.837Z,98575.34
2024-02-07T22:19:17.063Z,98582.55
2024-02-07T22:24:20.263Z,98591.65
2024-02-07T22:29:23.694Z,98590.60
2024-02-07T22:34:26.970Z,98595.59
2024-02-07T22:39:30.204Z,98595.05
2024-02-07T22:44:33.514Z,98603.11
2024-02-07T22:49:37.673Z,98606.39
2024-02-07T22:54:41.075Z,98607.92
2024-02-07T22:59:44.283Z,98608.79
2024-02-07T23:04:47.725Z,98616.34
2024-02-07T23:09:50.905Z,98619.77
2024-02-07T23:14:54.023Z,98618.92
2024-02-07T23:19:57.159Z,98624.24
2024-02-07T23:25:00.354Z,98624.94
2024-02-07T23:30:03.654Z,98632.48
2024-02-07T23:35:07.139Z,98636.79
2024-02-07T23:40:10.983Z,98639.18
2024-02-07T23:45:14.457Z,98638.67
2024-02-07T23:50:17.860Z,98636.27
2024-02-07T23:55:21.040Z,98646.05
